createdAt,value
2022-09-22T00:01:33.226Z,8.20
2022-09-22T00:04:05.893Z,8.10
2022-09-22T00:06:34.680Z,8.00
2022-09-22T00:09:04.858Z,8.00
2022-09-22T00:11:37.501Z,7.80
2022-09-22T00:14:06.927Z,7.70
2022-09-22T00:16:37.342Z,7.70
2022-09-22T00:19:06.929Z,7.60
2022-09-22T00:21:34.856Z,7.60
2022-09-22T00:24:03.312Z,7.50
2022-09-22T00:26:31.965Z,7.50
2022-09-22T00:29:02.012Z,7.40
2022-09-22T00:31:30.808Z,7.30
2022-09-22T00:33:58.852Z,7.20
2022-09-22T00:36:28.805Z,7.10
2022-09-22T00:38:58.499Z,6.90
2022-09-22T00:41:30.033Z,6.90
2022-09-22T00:44:47.607Z,6.90
2022-09-22T00:47:35.578Z,7.00
2022-09-22T00:50:13.070Z,7.20
2022-09-22T00:52:47.244Z,7.20
2022-09-22T00:55:19.749Z,7.30
2022-09-22T00:57:49.409Z,7.40
2022-09-22T01:00:17.795Z,7.50
2022-09-22T01:02:49.675Z,7.60
2022-09-22T01:05:18.534Z,7.60
2022-09-22T01:07:48.020Z,7.60
2022-09-22T01:10:16.356Z,7.60
2022-09-22T01:12:55.485Z,7.70
2022-09-22T01:15:30.865Z,7.90
2022-09-22T01:18:12.710Z,8.20
2022-09-22T01:21:12.921Z,8.40
2022-09-22T01:24:19.241Z,8.60
2022-09-22T01:27:25.973Z,8.80
2022-09-22T01:30:17.367Z,9.00
2022-09-22T01:33:04.357Z,9.00
2022-09-22T01:35:38.153Z,9.00
2022-09-22T01:38:31.446Z,8.90
2022-09-22T01:41:04.063Z,8.80
2022-09-22T01:43:39.242Z,8.80
2022-09-22T01:46:14.663Z,8.80
2022-09-22T01:48:47.771Z,8.80
2022-09-22T01:51:21.054Z,8.70
2022-09-22T01:53:54.970Z,8.60
2022-09-22T01:56:25.640Z,8.30
2022-09-22T01:58:58.712Z,8.20
2022-09-22T02:01:33.319Z,8.10
2022-09-22T02:04:06.596Z,8.10
2022-09-22T02:06:39.889Z,8.20
2022-09-22T02:09:10.645Z,8.30
2022-09-22T02:11:38.875Z,8.40
2022-09-22T02:14:07.869Z,8.50
2022-09-22T02:16:37.732Z,8.50
2022-09-22T02:19:13.439Z,8.60
2022-09-22T02:21:44.774Z,8.60
2022-09-22T02:24:28.205Z,8.60
2022-09-22T02:26:57.176Z,8.50
2022-09-22T02:29:27.855Z,8.50
2022-09-22T02:31:59.353Z,8.40
2022-09-22T02:34:28.484Z,8.40
2022-09-22T02:37:06.769Z,8.40
2022-09-22T02:39:40.764Z,8.40
2022-09-22T02:42:21.621Z,8.50
2022-09-22T02:44:56.137Z,8.40
2022-09-22T02:47:32.309Z,8.40
2022-09-22T02:50:01.815Z,8.40
2022-09-22T02:52:29.651Z,8.30
2022-09-22T02:54:57.629Z,8.20
2022-09-22T02:57:25.550Z,8.00
2022-09-22T02:59:53.444Z,7.80
2022-09-22T03:02:21.720Z,7.60
2022-09-22T03:04:51.537Z,7.40
2022-09-22T03:07:19.939Z,7.20
2022-09-22T03:09:47.984Z,7.10
2022-09-22T03:12:15.875Z,7.00
2022-09-22T03:14:44.025Z,6.90
2022-09-22T03:17:11.980Z,6.90
2022-09-22T03:19:39.928Z,7.00
2022-09-22T03:22:09.429Z,7.20
2022-09-22T03:24:37.382Z,7.20
2022-09-22T03:27:05.307Z,7.20
2022-09-22T03:29:33.204Z,7.20
2022-09-22T03:32:01.088Z,7.20
2022-09-22T03:34:28.962Z,7.30
2022-09-22T03:36:56.820Z,7.40
2022-09-22T03:39:26.304Z,7.40
2022-09-22T03:41:54.260Z,7.40
2022-09-22T03:44:22.170Z,7.50
2022-09-22T03:46:50.100Z,7.50
2022-09-22T03:49:17.934Z,7.60
2022-09-22T03:51:45.932Z,7.70
2022-09-22T03:54:13.811Z,7.70
2022-09-22T03:56:43.055Z,7.80
2022-09-22T03:59:11.554Z,7.80
2022-09-22T04:01:39.553Z,7.70
2022-09-22T04:04:08.047Z,7.70
2022-09-22T04:06:36.654Z,7.70
2022-09-22T04:09:05.473Z,7.80
2022-09-22T04:11:33.573Z,7.80
2022-09-22T04:14:03.903Z,7.90
2022-09-22T04:16:32.045Z,7.90
2022-09-22T04:19:00.857Z,7.90
2022-09-22T04:21:28.758Z,7.90
2022-09-22T04:23:57.070Z,7.90
2022-09-22T04:26:25.291Z,8.00
2022-09-22T04:28:53.181Z,7.90
2022-09-22T04:31:22.797Z,7.90
2022-09-22T04:33:50.766Z,7.80
2022-09-22T04:36:18.749Z,7.80
2022-09-22T04:38:46.810Z,7.90
2022-09-22T04:41:14.719Z,7.90
2022-09-22T04:43:43.452Z,7.80
2022-09-22T04:46:11.375Z,7.70
2022-09-22T04:48:40.633Z,7.70
2022-09-22T04:51:08.527Z,7.70
2022-09-22T04:53:36.391Z,7.70
2022-09-22T04:56:04.481Z,7.70
2022-09-22T04:58:33.716Z,7.70
2022-09-22T05:01:06.267Z,7.80
2022-09-22T05:03:38.005Z,7.90
2022-09-22T05:06:08.196Z,8.00
2022-09-22T05:08:36.143Z,8.00
2022-09-22T05:11:06.585Z,8.10
2022-09-22T05:13:35.225Z,8.20
2022-09-22T05:16:05.256Z,8.30
2022-09-22T05:18:33.158Z,8.40
2022-09-22T05:21:01.204Z,8.50
2022-09-22T05:23:32.088Z,8.60
2022-09-22T05:26:01.000Z,8.70
2022-09-22T05:28:29.442Z,8.70
2022-09-22T05:30:57.390Z,8.70
2022-09-22T05:33:25.329Z,8.70
2022-09-22T05:35:53.252Z,8.60
2022-09-22T05:38:21.150Z,8.60
2022-09-22T05:40:50.427Z,8.60
2022-09-22T05:43:18.420Z,8.70
2022-09-22T05:45:46.355Z,8.80
2022-09-22T05:48:14.304Z,8.90
2022-09-22T05:50:42.202Z,8.90
2022-09-22T05:53:12.176Z,9.00
2022-09-22T05:55:41.267Z,9.10
2022-09-22T05:58:11.736Z,9.10
2022-09-22T06:00:40.734Z,9.00
2022-09-22T06:03:09.103Z,9.10
2022-09-22T06:05:39.229Z,8.90
2022-09-22T06:08:08.010Z,8.90
2022-09-22T06:10:50.523Z,8.80
2022-09-22T06:13:20.383Z,8.70
2022-09-22T06:15:48.973Z,8.70
2022-09-22T06:18:24.198Z,8.60
2022-09-22T06:20:56.253Z,8.40
2022-09-22T06:23:26.209Z,8.20
2022-09-22T06:25:58.124Z,8.00
2022-09-22T06:28:27.493Z,8.00
2022-09-22T06:31:00.425Z,8.20
2022-09-22T06:33:28.894Z,8.30
2022-09-22T06:35:58.029Z,8.40
2022-09-22T06:38:25.977Z,8.60
2022-09-22T06:41:01.136Z,8.70
2022-09-22T06:43:30.962Z,8.80
2022-09-22T06:46:02.754Z,8.90
2022-09-22T06:48:32.122Z,8.90
2022-09-22T06:51:00.136Z,8.90
2022-09-22T06:53:27.986Z,8.90
2022-09-22T06:55:56.385Z,8.90
2022-09-22T06:58:25.228Z,8.90
2022-09-22T07:00:54.522Z,9.00
2022-09-22T07:03:26.221Z,9.00
2022-09-22T07:05:57.418Z,9.10
2022-09-22T07:08:26.319Z,9.20
2022-09-22T07:10:56.704Z,9.30
2022-09-22T07:13:25.478Z,9.20
2022-09-22T07:15:55.354Z,9.20
2022-09-22T07:18:23.305Z,9.20
2022-09-22T07:20:51.184Z,9.00
2022-09-22T07:23:21.009Z,8.80
2022-09-22T07:25:56.269Z,8.60
2022-09-22T07:28:25.854Z,8.50
2022-09-22T07:30:56.337Z,8.40
2022-09-22T07:33:24.376Z,8.20
2022-09-22T07:36:01.942Z,8.20
2022-09-22T07:38:33.865Z,8.20
2022-09-22T07:41:02.099Z,8.20
2022-09-22T07:43:29.983Z,8.30
2022-09-22T07:45:59.363Z,8.40
2022-09-22T07:48:37.990Z,8.40
2022-09-22T07:51:12.901Z,8.50
2022-09-22T07:53:44.931Z,8.50
2022-09-22T07:56:15.108Z,8.60
2022-09-22T07:58:47.993Z,8.80
2022-09-22T08:01:18.768Z,8.80
2022-09-22T08:03:47.325Z,8.80
2022-09-22T08:06:18.438Z,9.00
2022-09-22T08:08:52.302Z,9.10
2022-09-22T08:11:22.303Z,9.20
2022-09-22T08:13:52.635Z,9.30
2022-09-22T08:16:22.928Z,9.40
2022-09-22T08:18:51.502Z,9.50
2022-09-22T08:21:19.581Z,9.40
2022-09-22T08:23:51.109Z,9.50
2022-09-22T08:26:19.406Z,9.50
2022-09-22T08:28:48.045Z,9.60
2022-09-22T08:31:17.671Z,9.70
2022-09-22T08:33:47.692Z,9.80
2022-09-22T08:36:16.040Z,10.00
2022-09-22T08:38:45.743Z,10.10
2022-09-22T08:41:18.390Z,10.20
2022-09-22T08:43:52.625Z,10.30
2022-09-22T08:46:20.703Z,10.40
2022-09-22T08:49:08.900Z,10.50
2022-09-22T08:51:53.848Z,10.60
2022-09-22T08:54:25.205Z,10.60
2022-09-22T08:57:03.526Z,10.80
2022-09-22T08:59:37.157Z,10.80
2022-09-22T09:02:33.966Z,10.70
2022-09-22T09:05:35.578Z,10.80
2022-09-22T09:08:14.980Z,10.80
2022-09-22T09:10:52.932Z,11.00
2022-09-22T09:13:31.437Z,11.20
2022-09-22T09:16:15.854Z,11.30
2022-09-22T09:18:50.082Z,11.30
2022-09-22T09:21:17.980Z,11.30
2022-09-22T09:26:38.240Z,11.40
2022-09-22T09:29:08.623Z,11.50
2022-09-22T09:31:41.915Z,11.80
2022-09-22T09:34:14.644Z,11.90
2022-09-22T09:36:44.021Z,12.00
2022-09-22T09:39:15.917Z,12.20
2022-09-22T09:41:46.821Z,12.20
2022-09-22T09:44:24.132Z,12.20
2022-09-22T09:47:01.989Z,12.30
2022-09-22T09:49:30.027Z,12.20
2022-09-22T09:52:00.803Z,12.30
2022-09-22T09:54:30.868Z,12.40
2022-09-22T09:57:09.854Z,12.40
2022-09-22T09:59:57.109Z,12.40
2022-09-22T10:02:28.427Z,12.50
2022-09-22T10:04:58.639Z,12.60
2022-09-22T10:07:28.891Z,12.80
2022-09-22T10:10:32.738Z,12.80
2022-09-22T10:13:32.602Z,13.00
2022-09-22T10:16:07.023Z,13.00
2022-09-22T10:18:40.260Z,13.10
2022-09-22T10:21:15.740Z,13.10
2022-09-22T10:23:44.764Z,13.10
2022-09-22T10:26:22.754Z,13.30
2022-09-22T10:29:18.009Z,13.40
2022-09-22T10:32:03.087Z,13.50
2022-09-22T10:34:33.930Z,13.50
2022-09-22T10:37:04.556Z,13.60
2022-09-22T10:39:41.564Z,13.60
2022-09-22T10:42:24.280Z,13.70
2022-09-22T10:44:53.268Z,13.70
2022-09-22T10:47:31.500Z,13.80
2022-09-22T10:50:21.109Z,13.90
2022-09-22T10:52:55.811Z,13.90
2022-09-22T10:55:31.153Z,14.00
2022-09-22T10:58:25.278Z,14.00
2022-09-22T11:01:01.665Z,14.00
2022-09-22T11:03:54.621Z,14.00
2022-09-22T11:07:00.546Z,14.10
2022-09-22T11:09:53.420Z,14.10
2022-09-22T11:12:32.667Z,14.20
2022-09-22T11:15:19.850Z,14.20
2022-09-22T11:18:19.543Z,14.20
2022-09-22T11:20:52.034Z,14.20
2022-09-22T11:23:38.772Z,14.20
2022-09-22T11:26:22.673Z,14.30
2022-09-22T11:29:08.940Z,14.40
2022-09-22T11:31:47.509Z,14.30
2022-09-22T11:34:35.693Z,14.20
2022-09-22T11:37:26.498Z,14.20
2022-09-22T11:40:17.423Z,14.20
2022-09-22T11:42:55.177Z,14.30
2022-09-22T11:45:44.594Z,14.30
2022-09-22T11:48:28.592Z,14.30
2022-09-22T11:51:24.504Z,14.40
2022-09-22T11:54:11.677Z,14.50
2022-09-22T11:56:43.244Z,14.60
2022-09-22T11:59:26.992Z,14.60
2022-09-22T12:01:57.992Z,14.50
2022-09-22T12:04:34.167Z,14.60
2022-09-22T12:07:03.966Z,14.60
2022-09-22T12:09:38.655Z,14.60
2022-09-22T12:12:09.974Z,14.60
2022-09-22T12:14:38.513Z,14.60
2022-09-22T12:17:12.496Z,14.60
2022-09-22T12:19:55.988Z,14.60
2022-09-22T12:22:31.161Z,14.60
2022-09-22T12:24:59.320Z,14.70
2022-09-22T12:27:29.407Z,14.80
2022-09-22T12:30:00.852Z,14.80
2022-09-22T12:32:36.396Z,14.90
2022-09-22T12:35:07.007Z,14.90
2022-09-22T12:37:39.059Z,15.00
2022-09-22T12:40:24.145Z,14.90
2022-09-22T12:42:54.446Z,14.90
2022-09-22T12:45:30.049Z,14.90
2022-09-22T12:47:59.481Z,14.90
2022-09-22T12:50:40.025Z,14.90
2022-09-22T12:53:13.247Z,14.90
2022-09-22T12:55:41.288Z,14.90
2022-09-22T12:58:40.851Z,14.80
2022-09-22T13:01:33.713Z,14.80
2022-09-22T13:04:18.056Z,15.00
2022-09-22T13:06:56.549Z,15.10
2022-09-22T13:09:26.932Z,15.10
2022-09-22T13:12:26.976Z,15.10
2022-09-22T13:15:20.677Z,15.20
2022-09-22T13:17:50.029Z,15.20
2022-09-22T13:20:23.996Z,15.20
2022-09-22T13:22:54.583Z,15.30
2022-09-22T13:25:25.277Z,15.30
2022-09-22T13:28:15.682Z,15.30
2022-09-22T13:30:45.290Z,15.20
2022-09-22T13:33:21.755Z,15.20
2022-09-22T13:35:55.973Z,15.20
2022-09-22T13:38:26.329Z,15.20
2022-09-22T13:40:54.462Z,15.30
2022-09-22T13:43:29.111Z,15.20
2022-09-22T13:45:59.748Z,15.20
2022-09-22T13:48:31.793Z,15.20
2022-09-22T13:51:03.601Z,15.20
2022-09-22T13:53:33.465Z,15.30
2022-09-22T13:56:01.739Z,15.20
2022-09-22T13:58:37.128Z,15.20
2022-09-22T14:01:14.645Z,15.20
2022-09-22T14:03:43.171Z,15.10
2022-09-22T14:06:14.803Z,15.20
2022-09-22T14:08:45.454Z,15.20
2022-09-22T14:11:16.694Z,15.20
2022-09-22T14:13:58.276Z,15.20
2022-09-22T14:16:30.928Z,15.20
2022-09-22T14:19:04.395Z,15.20
2022-09-22T14:21:33.152Z,15.20
2022-09-22T14:24:02.806Z,15.20
2022-09-22T14:26:35.776Z,15.20
2022-09-22T14:29:14.989Z,15.20
2022-09-22T14:31:46.439Z,15.20
2022-09-22T14:34:20.968Z,15.20
2022-09-22T14:36:51.903Z,15.10
2022-09-22T14:39:31.321Z,15.20
2022-09-22T14:42:07.109Z,15.20
2022-09-22T14:44:42.376Z,15.20
2022-09-22T14:47:39.247Z,15.20
2022-09-22T14:50:19.140Z,15.20
2022-09-22T14:53:00.999Z,15.20
2022-09-22T14:55:34.329Z,15.20
2022-09-22T14:58:05.274Z,15.10
2022-09-22T15:00:51.457Z,15.10
2022-09-22T15:03:24.703Z,15.10
2022-09-22T15:05:52.703Z,15.10
2022-09-22T15:08:25.055Z,15.10
2022-09-22T15:10:56.040Z,15.00
2022-09-22T15:13:37.991Z,15.00
2022-09-22T15:16:06.926Z,15.00
2022-09-22T15:18:35.165Z,15.10
2022-09-22T15:21:11.302Z,15.10
2022-09-22T15:23:42.056Z,15.10
2022-09-22T15:26:16.904Z,15.10
2022-09-22T15:28:45.038Z,15.10
2022-09-22T15:31:14.158Z,15.00
2022-09-22T15:33:42.089Z,14.90
2022-09-22T15:36:15.625Z,14.90
2022-09-22T15:38:44.040Z,15.00
2022-09-22T15:41:15.694Z,14.90
2022-09-22T15:43:44.536Z,14.80
2022-09-22T15:46:28.481Z,14.70
2022-09-22T15:49:01.101Z,14.70
2022-09-22T15:51:30.412Z,14.60
2022-09-22T15:53:58.401Z,14.50
2022-09-22T15:56:30.031Z,14.50
2022-09-22T15:59:01.061Z,14.50
2022-09-22T16:01:29.786Z,14.40
2022-09-22T16:04:00.147Z,14.30
2022-09-22T16:06:28.874Z,14.30
2022-09-22T16:08:58.501Z,14.20
2022-09-22T16:11:29.682Z,14.20
2022-09-22T16:14:00.667Z,14.10
2022-09-22T16:16:29.517Z,14.10
2022-09-22T16:18:58.519Z,14.10
2022-09-22T16:21:29.286Z,14.10
2022-09-22T16:24:03.413Z,14.00
2022-09-22T16:26:33.510Z,13.90
2022-09-22T16:29:01.888Z,13.90
2022-09-22T16:31:29.923Z,13.80
2022-09-22T16:34:01.245Z,13.80
2022-09-22T16:36:32.833Z,13.70
2022-09-22T16:39:01.249Z,13.60
2022-09-22T16:41:30.681Z,13.60
2022-09-22T16:44:00.972Z,13.50
2022-09-22T16:46:30.747Z,13.50
2022-09-22T16:49:04.208Z,13.40
2022-09-22T16:51:33.282Z,13.30
2022-09-22T16:54:01.278Z,13.30
2022-09-22T16:56:30.834Z,13.30
2022-09-22T16:59:03.115Z,13.20
2022-09-22T17:01:32.240Z,13.00
2022-09-22T17:04:00.477Z,13.00
2022-09-22T17:06:28.889Z,13.00
2022-09-22T17:08:58.225Z,13.00
2022-09-22T17:11:30.075Z,12.90
2022-09-22T17:14:01.422Z,12.70
2022-09-22T17:16:31.067Z,12.60
2022-09-22T17:19:02.965Z,12.60
2022-09-22T17:21:34.503Z,12.50
2022-09-22T17:24:03.858Z,12.40
2022-09-22T17:26:34.280Z,12.40
2022-09-22T17:29:03.548Z,12.30
2022-09-22T17:31:32.389Z,12.30
2022-09-22T17:34:00.581Z,12.20
2022-09-22T17:36:30.004Z,12.10
2022-09-22T17:39:00.252Z,12.10
2022-09-22T17:41:32.563Z,12.00
2022-09-22T17:44:03.460Z,12.00
2022-09-22T17:47:08.505Z,11.90
2022-09-22T17:50:00.777Z,11.80
2022-09-22T17:52:46.100Z,11.70
2022-09-22T17:55:20.415Z,11.60
2022-09-22T17:57:49.708Z,11.60
2022-09-22T18:00:21.023Z,11.60
2022-09-22T18:02:50.304Z,11.50
2022-09-22T18:05:20.857Z,11.50
2022-09-22T18:07:53.501Z,11.50
2022-09-22T18:10:21.862Z,11.50
2022-09-22T18:12:49.855Z,11.60
2022-09-22T18:15:20.009Z,11.60
2022-09-22T18:17:51.541Z,11.60
2022-09-22T18:20:22.569Z,11.60
2022-09-22T18:22:52.069Z,11.60
2022-09-22T18:25:23.136Z,11.50
2022-09-22T18:27:53.186Z,11.50
2022-09-22T18:30:22.990Z,11.40
2022-09-22T18:32:50.893Z,11.40
2022-09-22T18:35:18.833Z,11.40
2022-09-22T18:37:47.190Z,11.30
2022-09-22T18:40:16.912Z,11.30
2022-09-22T18:42:45.524Z,11.30
2022-09-22T18:45:14.342Z,11.20
2022-09-22T18:47:44.102Z,11.20
2022-09-22T18:50:13.303Z,11.20
2022-09-22T18:52:43.014Z,11.30
2022-09-22T18:55:18.293Z,11.40
2022-09-22T18:57:47.519Z,11.40
2022-09-22T19:00:16.251Z,11.50
2022-09-22T19:02:46.174Z,11.50
2022-09-22T19:05:14.223Z,11.40
2022-09-22T19:07:43.817Z,11.40
2022-09-22T19:10:13.985Z,11.40
2022-09-22T19:12:42.504Z,11.40
2022-09-22T19:15:13.539Z,11.30
2022-09-22T19:17:43.140Z,11.20
2022-09-22T19:20:14.677Z,11.20
2022-09-22T19:22:42.817Z,11.10
2022-09-22T19:25:11.656Z,11.00
2022-09-22T19:27:40.604Z,11.00
2022-09-22T19:30:09.829Z,10.90
2022-09-22T19:32:38.405Z,10.80
2022-09-22T19:35:07.800Z,10.70
2022-09-22T19:37:37.126Z,10.70
2022-09-22T19:40:06.160Z,10.70
2022-09-22T19:42:40.137Z,10.70
2022-09-22T19:45:09.616Z,10.70
2022-09-22T19:47:37.681Z,10.70
2022-09-22T19:50:08.001Z,10.60
2022-09-22T19:52:38.092Z,10.60
2022-09-22T19:55:06.978Z,10.50
2022-09-22T19:57:36.221Z,10.40
2022-09-22T20:00:04.469Z,10.40
2022-09-22T20:02:32.313Z,10.50
2022-09-22T20:05:00.181Z,10.60
2022-09-22T20:07:28.402Z,10.70
2022-09-22T20:09:57.764Z,10.70
2022-09-22T20:12:25.597Z,10.70
2022-09-22T20:14:54.502Z,10.70
2022-09-22T20:17:23.090Z,10.70
2022-09-22T20:19:50.936Z,10.80
2022-09-22T20:22:22.771Z,10.80
2022-09-22T20:24:53.910Z,10.80
2022-09-22T20:27:25.274Z,10.80
2022-09-22T20:29:56.953Z,10.80
2022-09-22T20:32:26.413Z,10.80
2022-09-22T20:34:55.394Z,10.80
2022-09-22T20:37:24.924Z,10.70
2022-09-22T20:39:53.165Z,10.70
2022-09-22T20:42:21.510Z,10.70
2022-09-22T20:44:51.552Z,10.70
2022-09-22T20:47:37.745Z,10.70
2022-09-22T20:50:09.159Z,10.70
2022-09-22T20:52:37.887Z,10.90
2022-09-22T20:55:06.517Z,11.00
2022-09-22T20:57:34.611Z,11.20
2022-09-22T21:00:04.976Z,11.20
2022-09-22T21:02:33.403Z,11.30
2022-09-22T21:05:01.253Z,11.40
2022-09-22T21:07:30.129Z,11.40
2022-09-22T21:10:15.426Z,11.40
2022-09-22T21:12:44.423Z,11.40
2022-09-22T21:15:14.304Z,11.50
2022-09-22T21:17:43.974Z,11.60
2022-09-22T21:20:12.017Z,11.70
2022-09-22T21:22:40.715Z,11.70
2022-09-22T21:25:10.879Z,11.70
2022-09-22T21:27:38.925Z,11.70
2022-09-22T21:30:08.257Z,11.60
2022-09-22T21:32:37.728Z,11.60
2022-09-22T21:35:06.693Z,11.60
2022-09-22T21:37:34.573Z,11.60
2022-09-22T21:40:02.937Z,11.70
2022-09-22T21:42:31.231Z,11.70
2022-09-22T21:44:59.118Z,11.70
2022-09-22T21:47:26.955Z,11.70
2022-09-22T21:49:56.197Z,11.70
2022-09-22T21:52:24.067Z,11.70
2022-09-22T21:54:51.905Z,11.70
2022-09-22T21:57:19.806Z,11.60
2022-09-22T21:59:47.841Z,11.60
2022-09-22T22:02:15.762Z,11.60
2022-09-22T22:04:43.849Z,11.60
2022-09-22T22:07:14.281Z,11.70
2022-09-22T22:09:42.139Z,11.60
2022-09-22T22:12:11.844Z,11.60
2022-09-22T22:14:40.065Z,11.60
2022-09-22T22:17:07.874Z,11.50
2022-09-22T22:19:35.735Z,11.40
2022-09-22T22:22:04.169Z,11.20
2022-09-22T22:24:39.323Z,11.10
2022-09-22T22:27:10.674Z,11.00
2022-09-22T22:29:39.646Z,10.90
2022-09-22T22:32:10.440Z,10.90
2022-09-22T22:34:38.538Z,10.90
2022-09-22T22:37:09.500Z,10.90
2022-09-22T22:39:38.942Z,10.90
2022-09-22T22:42:07.850Z,10.90
2022-09-22T22:44:36.065Z,10.90
2022-09-22T22:47:05.114Z,10.90
2022-09-22T22:49:33.364Z,10.90
2022-09-22T22:52:01.486Z,10.80
2022-09-22T22:54:29.331Z,10.70
2022-09-22T22:56:58.569Z,10.50
2022-09-22T22:59:26.522Z,10.50
2022-09-22T23:01:54.455Z,10.50
2022-09-22T23:04:22.768Z,10.50
2022-09-22T23:06:51.657Z,10.40
2022-09-22T23:09:19.588Z,10.40
2022-09-22T23:11:47.513Z,10.30
2022-09-22T23:14:16.713Z,10.20
2022-09-22T23:16:46.334Z,10.20
2022-09-22T23:19:16.749Z,10.20
2022-09-22T23:21:45.891Z,10.20
2022-09-22T23:24:16.230Z,10.20
2022-09-22T23:26:44.468Z,10.10
2022-09-22T23:29:12.391Z,10.00
2022-09-22T23:31:41.621Z,10.00
2022-09-22T23:34:09.718Z,10.00
2022-09-22T23:36:39.449Z,10.00
2022-09-22T23:39:07.844Z,10.00
2022-09-22T23:41:37.593Z,10.00
2022-09-22T23:44:06.436Z,10.00
2022-09-22T23:46:34.333Z,10.00
2022-09-22T23:49:03.709Z,10.10
2022-09-22T23:51:31.927Z,10.20
2022-09-22T23:53:59.882Z,10.30
2022-09-22T23:56:27.900Z,10.30
2022-09-22T23:58:55.782Z,10.30
